Time;durP1;ratioP1;P1;durP2;ratioP2;P2;SDS_P1;SDS_P2;PMS_P1;PMS_P2;Temp;Humidity;BMP_temperature;BMP_pressure;BME280_temperature;BME280_humidity;BME280_pressure;Samples;Min_cycle;Max_cycle;Signal;HPM_P1;HPM_P2
2022/05/26 00:01:08;;;;;;;0.60;0.60;;;;;;;;;;5141109;27;20213;-62
2022/05/26 00:03:39;;;;;;;0.93;0.70;;;;;;;;;;5140535;27;20301;-62
2022/05/26 00:06:07;;;;;;;0.95;0.60;;;;;;;;;;5140852;27;20229;-62
2022/05/26 00:08:36;;;;;;;0.50;0.50;;;;;;;;;;5140335;27;20206;-62
2022/05/26 00:11:05;;;;;;;0.57;0.57;;;;;;;;;;5140412;27;20209;-62
2022/05/26 00:13:33;;;;;;;0.80;0.55;;;;;;;;;;5140253;27;20203;-63
2022/05/26 00:16:00;;;;;;;0.70;0.70;;;;;;;;;;5140364;27;20263;-62
2022/05/26 00:18:28;;;;;;;0.52;0.52;;;;;;;;;;5140022;27;20617;-62
2022/05/26 00:20:57;;;;;;;0.60;0.60;;;;;;;;;;5140993;27;20482;-62
2022/05/26 00:23:25;;;;;;;1.15;0.52;;;;;;;;;;5140372;27;20256;-62
2022/05/26 00:25:52;;;;;;;0.73;0.63;;;;;;;;;;5140365;27;20202;-62
2022/05/26 00:28:20;;;;;;;0.60;0.60;;;;;;;;;;5140644;27;20206;-62
2022/05/26 00:30:48;;;;;;;0.60;0.50;;;;;;;;;;5140208;27;20356;-62
2022/05/26 00:33:16;;;;;;;0.90;0.60;;;;;;;;;;5140456;27;20238;-62
2022/05/26 00:35:44;;;;;;;0.70;0.63;;;;;;;;;;5140223;27;20202;-62
2022/05/26 00:38:15;;;;;;;0.63;0.63;;;;;;;;;;5140169;27;20555;-62
2022/05/26 00:40:43;;;;;;;0.60;0.60;;;;;;;;;;5139797;27;20436;-62
2022/05/26 00:43:11;;;;;;;0.57;0.50;;;;;;;;;;5139826;27;20640;-62
2022/05/26 00:45:41;;;;;;;0.50;0.50;;;;;;;;;;5140413;27;20202;-63
2022/05/26 00:48:11;;;;;;;0.60;0.60;;;;;;;;;;5139971;27;20206;-62
2022/05/26 00:50:44;;;;;;;0.60;0.50;;;;;;;;;;5139540;27;20210;-62
2022/05/26 00:53:16;;;;;;;0.88;0.60;;;;;;;;;;5139777;27;20206;-62
2022/05/26 00:55:46;;;;;;;0.57;0.57;;;;;;;;;;5139982;27;20222;-62
2022/05/26 00:58:16;;;;;;;0.75;0.70;;;;;;;;;;5139525;27;20230;-62
2022/05/26 01:00:44;;;;;;;0.60;0.60;;;;;;;;;;5139562;27;20210;-62
2022/05/26 01:03:13;;;;;;;0.73;0.60;;;;;;;;;;5139746;27;20202;-62
2022/05/26 01:05:46;;;;;;;0.50;0.50;;;;;;;;;;5139804;27;20218;-62
2022/05/26 01:08:19;;;;;;;0.50;0.50;;;;;;;;;;5140002;27;20231;-62
2022/05/26 01:10:46;;;;;;;0.60;0.60;;;;;;;;;;5139967;27;20267;-62
2022/05/26 01:13:17;;;;;;;0.60;0.60;;;;;;;;;;5139320;27;20267;-62
2022/05/26 01:15:48;;;;;;;0.50;0.50;;;;;;;;;;5139026;27;20278;-62
2022/05/26 01:18:20;;;;;;;0.60;0.60;;;;;;;;;;5138777;27;20226;-62
2022/05/26 01:20:58;;;;;;;0.82;0.65;;;;;;;;;;5139123;27;20210;-63
2022/05/26 01:23:40;;;;;;;0.60;0.55;;;;;;;;;;5138951;27;20573;-62
2022/05/26 01:26:26;;;;;;;0.60;0.50;;;;;;;;;;5139214;27;20573;-62
2022/05/26 01:29:10;;;;;;;0.60;0.60;;;;;;;;;;5138740;27;20209;-61
2022/05/26 01:31:43;;;;;;;0.60;0.60;;;;;;;;;;5139250;27;20202;-62
2022/05/26 01:34:16;;;;;;;0.50;0.50;;;;;;;;;;5138610;27;20235;-63
2022/05/26 01:36:45;;;;;;;0.73;0.60;;;;;;;;;;5138930;27;20205;-62
2022/05/26 01:39:17;;;;;;;0.60;0.50;;;;;;;;;;5138430;27;20225;-62
2022/05/26 01:41:51;;;;;;;0.45;0.45;;;;;;;;;;5138532;27;20227;-62
2022/05/26 01:44:24;;;;;;;0.70;0.70;;;;;;;;;;5139048;27;20206;-62
2022/05/26 01:46:57;;;;;;;1.10;0.60;;;;;;;;;;5139041;27;20210;-62
2022/05/26 01:49:28;;;;;;;0.70;0.60;;;;;;;;;;5138996;27;20589;-63
2022/05/26 01:51:58;;;;;;;0.80;0.70;;;;;;;;;;5139374;27;20860;-62
2022/05/26 01:54:30;;;;;;;0.60;0.60;;;;;;;;;;5138278;27;20210;-63
2022/05/26 01:57:01;;;;;;;0.50;0.50;;;;;;;;;;5138151;27;20259;-62
2022/05/26 01:59:32;;;;;;;0.70;0.70;;;;;;;;;;5138312;27;20286;-62
2022/05/26 02:02:04;;;;;;;0.60;0.60;;;;;;;;;;5138593;27;20202;-62
2022/05/26 02:04:35;;;;;;;0.52;0.50;;;;;;;;;;5138830;27;20202;-62
2022/05/26 02:07:04;;;;;;;0.70;0.70;;;;;;;;;;5138357;27;20194;-61
2022/05/26 02:09:38;;;;;;;0.65;0.65;;;;;;;;;;5138264;27;20202;-62
2022/05/26 02:12:07;;;;;;;0.63;0.55;;;;;;;;;;5138729;27;20210;-62
2022/05/26 02:14:36;;;;;;;0.57;0.57;;;;;;;;;;5138531;27;20210;-62
2022/05/26 02:17:09;;;;;;;0.55;0.55;;;;;;;;;;5138366;27;20202;-63
2022/05/26 02:19:37;;;;;;;0.60;0.60;;;;;;;;;;5137542;27;20610;-61
2022/05/26 02:22:10;;;;;;;0.63;0.60;;;;;;;;;;5138479;27;20209;-62
2022/05/26 02:24:38;;;;;;;0.85;0.60;;;;;;;;;;5138505;27;20198;-62
2022/05/26 02:27:06;;;;;;;0.50;0.50;;;;;;;;;;5138363;27;20573;-62
2022/05/26 02:29:52;;;;;;;1.52;0.50;;;;;;;;;;5138310;28;20248;-62
2022/05/26 02:32:23;;;;;;;0.55;0.55;;;;;;;;;;5138344;28;20256;-62
2022/05/26 02:34:51;;;;;;;0.80;0.50;;;;;;;;;;5138763;28;20225;-62
2022/05/26 02:37:20;;;;;;;0.60;0.60;;;;;;;;;;5138500;28;20509;-62
2022/05/26 02:39:48;;;;;;;0.60;0.60;;;;;;;;;;5139102;28;20617;-62
2022/05/26 02:42:16;;;;;;;0.63;0.60;;;;;;;;;;5138630;28;20589;-62
2022/05/26 02:44:44;;;;;;;0.70;0.60;;;;;;;;;;5138651;28;20296;-62
2022/05/26 02:47:18;;;;;;;0.93;0.55;;;;;;;;;;5138396;28;20209;-62
2022/05/26 02:49:53;;;;;;;0.70;0.65;;;;;;;;;;5138758;27;20209;-62
2022/05/26 02:52:25;;;;;;;0.63;0.52;;;;;;;;;;5142521;27;20233;-62
2022/05/26 02:55:00;;;;;;;0.50;0.50;;;;;;;;;;5142776;27;20202;-62
2022/05/26 02:57:35;;;;;;;0.68;0.60;;;;;;;;;;5142611;27;20273;-62
2022/05/26 03:00:07;;;;;;;0.50;0.50;;;;;;;;;;5142483;27;20222;-62
2022/05/26 03:02:38;;;;;;;0.50;0.50;;;;;;;;;;5142334;27;20544;-62
2022/05/26 03:05:11;;;;;;;0.70;0.70;;;;;;;;;;5142278;27;20252;-62
2022/05/26 03:07:40;;;;;;;0.50;0.50;;;;;;;;;;5142258;27;20271;-62
2022/05/26 03:10:08;;;;;;;0.55;0.50;;;;;;;;;;5142487;27;20198;-62
2022/05/26 03:12:37;;;;;;;0.60;0.60;;;;;;;;;;5142113;27;20202;-62
2022/05/26 03:15:05;;;;;;;0.73;0.60;;;;;;;;;;5141966;27;20244;-62
2022/05/26 03:17:33;;;;;;;0.40;0.40;;;;;;;;;;5142382;27;20297;-62
2022/05/26 03:20:00;;;;;;;0.50;0.50;;;;;;;;;;5141961;27;20226;-62
2022/05/26 03:22:30;;;;;;;0.50;0.50;;;;;;;;;;5141952;27;20210;-62
2022/05/26 03:24:57;;;;;;;0.73;0.50;;;;;;;;;;5141775;27;20574;-62
2022/05/26 03:27:25;;;;;;;0.60;0.52;;;;;;;;;;5142330;27;20202;-62
2022/05/26 03:29:53;;;;;;;0.50;0.40;;;;;;;;;;5142105;27;20198;-62
2022/05/26 03:32:20;;;;;;;0.47;0.47;;;;;;;;;;5141496;27;20210;-62
2022/05/26 03:43:06;;;;;;;0.85;0.60;;;;;;;;;;5141264;27;20663;-62
2022/05/26 03:45:34;;;;;;;0.95;0.60;;;;;;;;;;5141638;27;20210;-62
2022/05/26 03:48:02;;;;;;;0.60;0.60;;;;;;;;;;5141183;27;20211;-62
2022/05/26 03:50:30;;;;;;;0.50;0.50;;;;;;;;;;5141441;27;20623;-62
2022/05/26 03:52:59;;;;;;;0.50;0.50;;;;;;;;;;5141535;27;20202;-62
2022/05/26 03:55:28;;;;;;;0.70;0.70;;;;;;;;;;5141186;27;20285;-62
2022/05/26 03:57:58;;;;;;;0.50;0.50;;;;;;;;;;5141543;27;20202;-62
2022/05/26 04:00:27;;;;;;;0.50;0.50;;;;;;;;;;5140344;27;20214;-62
2022/05/26 04:02:54;;;;;;;0.60;0.57;;;;;;;;;;5141256;27;20194;-62
2022/05/26 04:05:22;;;;;;;0.57;0.50;;;;;;;;;;5141237;27;20466;-62
2022/05/26 04:07:50;;;;;;;0.60;0.60;;;;;;;;;;5140860;27;20289;-62
2022/05/26 04:10:21;;;;;;;0.75;0.50;;;;;;;;;;5141143;27;20194;-62
2022/05/26 04:12:48;;;;;;;0.60;0.60;;;;;;;;;;5141428;27;20508;-62
2022/05/26 04:15:17;;;;;;;0.50;0.43;;;;;;;;;;5141412;27;20202;-62
2022/05/26 04:17:44;;;;;;;0.77;0.60;;;;;;;;;;5141313;27;20208;-62
2022/05/26 04:20:14;;;;;;;0.60;0.57;;;;;;;;;;5140857;27;20254;-62
2022/05/26 04:22:41;;;;;;;0.68;0.60;;;;;;;;;;5140896;27;20526;-62
2022/05/26 04:25:09;;;;;;;0.50;0.50;;;;;;;;;;5141084;27;20202;-62
2022/05/26 04:27:39;;;;;;;0.60;0.50;;;;;;;;;;5140654;27;20209;-62
2022/05/26 04:30:08;;;;;;;0.55;0.50;;;;;;;;;;5140375;27;20199;-62
2022/05/26 04:32:36;;;;;;;0.85;0.60;;;;;;;;;;5140810;27;20230;-62
2022/05/26 04:35:04;;;;;;;1.10;0.63;;;;;;;;;;5140442;27;20480;-63
2022/05/26 04:37:31;;;;;;;0.60;0.60;;;;;;;;;;5140348;27;20597;-62
2022/05/26 04:40:00;;;;;;;0.50;0.50;;;;;;;;;;5140397;27;20228;-62
2022/05/26 04:42:29;;;;;;;1.38;0.52;;;;;;;;;;5139731;27;20213;-62
2022/05/26 04:44:59;;;;;;;0.95;0.60;;;;;;;;;;5140611;27;20225;-62
2022/05/26 04:47:27;;;;;;;0.40;0.40;;;;;;;;;;5140663;27;20202;-62
2022/05/26 04:49:54;;;;;;;0.60;0.60;;;;;;;;;;5140675;27;20213;-61
2022/05/26 04:52:24;;;;;;;0.60;0.60;;;;;;;;;;5140269;27;20371;-62
2022/05/26 04:54:52;;;;;;;0.60;0.60;;;;;;;;;;5139910;27;20206;-62
2022/05/26 04:57:21;;;;;;;0.55;0.55;;;;;;;;;;5139979;27;20230;-62
2022/05/26 04:59:48;;;;;;;0.50;0.50;;;;;;;;;;5140465;27;20659;-63
2022/05/26 05:02:18;;;;;;;0.57;0.57;;;;;;;;;;5139929;27;20202;-62
2022/05/26 05:04:48;;;;;;;0.52;0.52;;;;;;;;;;5139514;27;20236;-62
2022/05/26 05:07:17;;;;;;;0.40;0.40;;;;;;;;;;5140283;27;20203;-62
2022/05/26 05:09:45;;;;;;;0.40;0.40;;;;;;;;;;5139712;27;20198;-62
2022/05/26 05:12:14;;;;;;;0.50;0.50;;;;;;;;;;5139252;27;20562;-62
2022/05/26 05:14:43;;;;;;;0.50;0.50;;;;;;;;;;5138705;27;20202;-62
2022/05/26 05:17:10;;;;;;;0.57;0.57;;;;;;;;;;5139063;27;20296;-62
2022/05/26 05:19:40;;;;;;;0.98;0.60;;;;;;;;;;5138527;27;20225;-62
2022/05/26 05:22:10;;;;;;;1.00;0.70;;;;;;;;;;5139077;27;20209;-62
2022/05/26 05:24:41;;;;;;;0.70;0.70;;;;;;;;;;5139225;27;20210;-62
2022/05/26 05:27:14;;;;;;;0.52;0.52;;;;;;;;;;5139245;27;20221;-62
2022/05/26 05:29:43;;;;;;;0.75;0.47;;;;;;;;;;5139315;27;20221;-62
2022/05/26 05:32:14;;;;;;;0.60;0.50;;;;;;;;;;5139591;27;20318;-62
2022/05/26 05:34:45;;;;;;;1.23;0.60;;;;;;;;;;5139067;27;20582;-62
2022/05/26 05:37:13;;;;;;;0.70;0.70;;;;;;;;;;5139022;27;20199;-62
2022/05/26 05:39:40;;;;;;;0.60;0.60;;;;;;;;;;5139280;27;20278;-62
2022/05/26 05:42:09;;;;;;;0.60;0.47;;;;;;;;;;5139303;27;20594;-62
2022/05/26 05:44:37;;;;;;;0.65;0.60;;;;;;;;;;5139149;27;20608;-62
2022/05/26 05:47:06;;;;;;;0.50;0.50;;;;;;;;;;5138937;27;20206;-62
2022/05/26 05:49:34;;;;;;;0.70;0.70;;;;;;;;;;5139326;27;20206;-62
2022/05/26 05:52:07;;;;;;;0.60;0.57;;;;;;;;;;5138741;27;20209;-63
2022/05/26 05:54:35;;;;;;;0.60;0.60;;;;;;;;;;5118373;28;20232;-62
2022/05/26 05:57:03;;;;;;;0.98;0.60;;;;;;;;;;5118015;28;20307;-62
2022/05/26 05:59:30;;;;;;;0.40;0.40;;;;;;;;;;5118623;28;20296;-62
2022/05/26 06:01:58;;;;;;;0.70;0.50;;;;;;;;;;5118444;28;20594;-62
2022/05/26 06:04:26;;;;;;;0.50;0.50;;;;;;;;;;5117811;28;20203;-62
2022/05/26 06:06:53;;;;;;;0.50;0.40;;;;;;;;;;5118093;28;20203;-62
2022/05/26 06:09:23;;;;;;;0.80;0.60;;;;;;;;;;5118181;28;20203;-62
2022/05/26 06:11:51;;;;;;;0.60;0.60;;;;;;;;;;5117773;28;20202;-63
2022/05/26 06:14:19;;;;;;;0.50;0.50;;;;;;;;;;5129128;27;20199;-62
2022/05/26 06:16:46;;;;;;;0.47;0.47;;;;;;;;;;5136202;27;20198;-62
2022/05/26 06:19:15;;;;;;;0.45;0.45;;;;;;;;;;5135827;27;20206;-62
2022/05/26 06:21:42;;;;;;;0.55;0.50;;;;;;;;;;5137146;27;20194;-62
2022/05/26 06:24:12;;;;;;;0.80;0.50;;;;;;;;;;5136435;27;20198;-63
2022/05/26 06:26:41;;;;;;;0.70;0.70;;;;;;;;;;5137208;27;20274;-62
2022/05/26 06:37:28;;;;;;;0.60;0.55;;;;;;;;;;5137349;28;20702;-62
2022/05/26 06:39:55;;;;;;;0.90;0.60;;;;;;;;;;5137969;28;20238;-62
2022/05/26 06:42:25;;;;;;;0.82;0.60;;;;;;;;;;5137590;28;20209;-62
2022/05/26 06:44:53;;;;;;;1.00;0.60;;;;;;;;;;5137483;28;20202;-62
2022/05/26 06:47:21;;;;;;;0.77;0.60;;;;;;;;;;5137993;28;20202;-62
2022/05/26 06:49:49;;;;;;;1.05;0.60;;;;;;;;;;5138102;28;20516;-61
2022/05/26 06:52:17;;;;;;;1.05;0.57;;;;;;;;;;5137659;28;20214;-62
2022/05/26 06:54:46;;;;;;;0.60;0.60;;;;;;;;;;5137595;28;20202;-62
2022/05/26 06:57:14;;;;;;;0.75;0.70;;;;;;;;;;5136897;28;20226;-62
2022/05/26 06:59:43;;;;;;;1.08;0.70;;;;;;;;;;5137343;28;20221;-62
2022/05/26 07:02:12;;;;;;;0.65;0.50;;;;;;;;;;5137637;28;20328;-62
2022/05/26 07:04:39;;;;;;;0.93;0.60;;;;;;;;;;5137446;28;20225;-62
2022/05/26 07:07:07;;;;;;;0.75;0.60;;;;;;;;;;5137239;28;20202;-62
2022/05/26 07:09:35;;;;;;;0.65;0.52;;;;;;;;;;5137281;28;20202;-62
2022/05/26 07:12:02;;;;;;;0.85;0.50;;;;;;;;;;5136986;28;20228;-62
2022/05/26 07:14:30;;;;;;;0.93;0.60;;;;;;;;;;5136253;28;20202;-62
2022/05/26 07:16:58;;;;;;;1.13;0.60;;;;;;;;;;5136800;28;20198;-62
2022/05/26 07:19:26;;;;;;;0.73;0.50;;;;;;;;;;5137010;28;20512;-62
2022/05/26 07:21:53;;;;;;;0.40;0.40;;;;;;;;;;5136211;28;20216;-62
2022/05/26 07:24:23;;;;;;;0.65;0.52;;;;;;;;;;5136171;28;20202;-62
2022/05/26 07:26:50;;;;;;;0.60;0.50;;;;;;;;;;5136384;28;20202;-62
2022/05/26 07:29:18;;;;;;;0.57;0.52;;;;;;;;;;5136082;28;20212;-62
2022/05/26 07:31:46;;;;;;;0.95;0.50;;;;;;;;;;5136323;28;20206;-62
2022/05/26 07:34:15;;;;;;;0.40;0.40;;;;;;;;;;5135748;28;20202;-62
2022/05/26 07:42:13;;;;;;;1.50;0.60;;;;;;;;;;5139596;27;20245;-62
2022/05/26 07:44:42;;;;;;;1.20;0.50;;;;;;;;;;5139976;27;20198;-62
2022/05/26 07:47:10;;;;;;;1.60;0.57;;;;;;;;;;5140074;27;20209;-62
2022/05/26 07:49:41;;;;;;;1.42;0.60;;;;;;;;;;5140269;27;20209;-62
2022/05/26 07:52:09;;;;;;;0.73;0.63;;;;;;;;;;5140230;27;20250;-62
2022/05/26 07:54:36;;;;;;;1.13;0.60;;;;;;;;;;5140150;27;20482;-62
2022/05/26 07:57:04;;;;;;;0.68;0.55;;;;;;;;;;5139607;27;20230;-62
2022/05/26 07:59:32;;;;;;;1.15;0.50;;;;;;;;;;5139727;27;20474;-62
2022/05/26 08:01:59;;;;;;;1.75;0.60;;;;;;;;;;5138316;27;20249;-62
2022/05/26 08:04:27;;;;;;;1.42;0.60;;;;;;;;;;5139320;27;20215;-62
2022/05/26 08:06:56;;;;;;;0.98;0.50;;;;;;;;;;5139241;27;20203;-62
2022/05/26 08:09:23;;;;;;;0.98;0.57;;;;;;;;;;5139255;27;20254;-62
2022/05/26 08:11:50;;;;;;;0.80;0.60;;;;;;;;;;5139882;27;20469;-62
2022/05/26 08:14:18;;;;;;;0.50;0.50;;;;;;;;;;5139699;27;20217;-62
2022/05/26 08:16:46;;;;;;;0.50;0.50;;;;;;;;;;5140043;27;20198;-62
2022/05/26 08:19:13;;;;;;;1.30;0.60;;;;;;;;;;5140778;27;20297;-62
2022/05/26 08:21:40;;;;;;;0.43;0.40;;;;;;;;;;5139201;27;20233;-62
2022/05/26 08:24:10;;;;;;;0.65;0.47;;;;;;;;;;5139606;27;20566;-62
2022/05/26 08:26:37;;;;;;;0.60;0.45;;;;;;;;;;5139721;27;20213;-63
2022/05/26 08:29:05;;;;;;;0.60;0.60;;;;;;;;;;5139885;27;20203;-62
2022/05/26 08:31:32;;;;;;;1.27;0.60;;;;;;;;;;5139076;27;20209;-62
2022/05/26 08:34:00;;;;;;;0.95;0.63;;;;;;;;;;5138350;27;20202;-62
2022/05/26 08:36:28;;;;;;;0.82;0.60;;;;;;;;;;5138397;27;20210;-62
2022/05/26 08:38:56;;;;;;;0.88;0.60;;;;;;;;;;5139211;27;20259;-62
2022/05/26 08:41:26;;;;;;;0.70;0.68;;;;;;;;;;5138503;27;20601;-62
2022/05/26 08:43:57;;;;;;;0.57;0.55;;;;;;;;;;5139106;27;20202;-63
2022/05/26 08:46:26;;;;;;;0.50;0.50;;;;;;;;;;5138684;27;20531;-62
2022/05/26 08:49:06;;;;;;;1.23;0.55;;;;;;;;;;5137369;27;20202;-62
2022/05/26 08:51:42;;;;;;;1.08;0.60;;;;;;;;;;5138802;27;20206;-62
2022/05/26 08:54:12;;;;;;;0.80;0.50;;;;;;;;;;5138822;27;20202;-62
2022/05/26 08:56:41;;;;;;;1.25;0.52;;;;;;;;;;5138876;27;20320;-62
2022/05/26 08:59:12;;;;;;;0.80;0.50;;;;;;;;;;5139303;27;20202;-62
2022/05/26 09:01:40;;;;;;;0.50;0.50;;;;;;;;;;5138199;27;20236;-62
2022/05/26 09:04:10;;;;;;;0.47;0.47;;;;;;;;;;5138913;27;20316;-62
2022/05/26 09:12:55;;;;;;;0.70;0.50;;;;;;;;;;5139280;27;20616;-62
2022/05/26 09:15:02;;;;;;;0.60;0.60;;;;;;;;;;5138287;27;20592;-62
2022/05/26 09:17:30;;;;;;;0.50;0.50;;;;;;;;;;5138268;27;20205;-62
2022/05/26 09:19:58;;;;;;;1.60;0.63;;;;;;;;;;5138627;27;20203;-62
2022/05/26 09:22:28;;;;;;;1.30;0.52;;;;;;;;;;5137113;27;20250;-62
2022/05/26 09:24:56;;;;;;;1.25;0.50;;;;;;;;;;5137997;27;20206;-62
2022/05/26 09:27:28;;;;;;;3.13;0.70;;;;;;;;;;5137646;27;20206;-62
2022/05/26 09:29:55;;;;;;;3.97;0.80;;;;;;;;;;5138246;27;20202;-62
2022/05/26 09:32:30;;;;;;;4.93;0.60;;;;;;;;;;5138085;27;20206;-62
2022/05/26 09:35:03;;;;;;;0.73;0.40;;;;;;;;;;5138138;27;20197;-62
2022/05/26 09:37:38;;;;;;;2.42;0.60;;;;;;;;;;5137660;27;20212;-62
2022/05/26 09:40:13;;;;;;;2.35;0.70;;;;;;;;;;5138018;27;20198;-62
2022/05/26 09:42:43;;;;;;;3.88;0.65;;;;;;;;;;5138183;27;20236;-62
2022/05/26 09:45:13;;;;;;;4.43;0.80;;;;;;;;;;5137465;27;20226;-62
2022/05/26 09:47:41;;;;;;;2.47;0.50;;;;;;;;;;5137600;27;20198;-62
2022/05/26 09:50:10;;;;;;;1.38;0.60;;;;;;;;;;5137902;27;20209;-62
2022/05/26 09:52:42;;;;;;;1.85;0.50;;;;;;;;;;5138222;27;20278;-62
2022/05/26 09:55:12;;;;;;;0.75;0.70;;;;;;;;;;5137294;27;20205;-62
2022/05/26 09:57:39;;;;;;;1.52;0.50;;;;;;;;;;5137934;27;20248;-62
2022/05/26 10:00:22;;;;;;;1.20;0.50;;;;;;;;;;5134414;27;20225;-62
2022/05/26 10:02:52;;;;;;;1.13;0.82;;;;;;;;;;5130831;27;20247;-62
2022/05/26 10:05:24;;;;;;;5.28;0.60;;;;;;;;;;5137208;27;20203;-62
2022/05/26 10:08:03;;;;;;;1.38;0.60;;;;;;;;;;5135944;27;20202;-62
2022/05/26 10:10:31;;;;;;;1.30;0.60;;;;;;;;;;5137809;27;20496;-66
2022/05/26 10:13:17;;;;;;;2.05;0.80;;;;;;;;;;5134482;27;20201;-62
2022/05/26 10:15:49;;;;;;;0.75;0.60;;;;;;;;;;5135894;27;20281;-63
2022/05/26 10:18:23;;;;;;;1.95;0.50;;;;;;;;;;5133586;27;20207;-63
2022/05/26 10:20:53;;;;;;;0.95;0.70;;;;;;;;;;5116487;28;20229;-62
2022/05/26 10:23:28;;;;;;;1.40;0.60;;;;;;;;;;5134635;27;20458;-62
2022/05/26 10:26:03;;;;;;;1.23;0.65;;;;;;;;;;5136596;27;20296;-62
2022/05/26 10:28:45;;;;;;;1.30;0.60;;;;;;;;;;5134516;27;20213;-62
2022/05/26 10:31:20;;;;;;;1.08;0.80;;;;;;;;;;5133459;27;20198;-62
2022/05/26 10:34:04;;;;;;;1.33;0.77;;;;;;;;;;5136212;27;20193;-62
2022/05/26 10:36:42;;;;;;;0.47;0.47;;;;;;;;;;5136820;27;20213;-62
2022/05/26 10:39:10;;;;;;;0.82;0.63;;;;;;;;;;5134571;28;20201;-62
2022/05/26 10:41:40;;;;;;;1.42;0.60;;;;;;;;;;5137091;28;20226;-62
2022/05/26 10:44:12;;;;;;;1.02;0.60;;;;;;;;;;5133661;28;20278;-62
2022/05/26 10:46:41;;;;;;;0.60;0.50;;;;;;;;;;5135986;28;20621;-62
2022/05/26 10:49:13;;;;;;;0.65;0.65;;;;;;;;;;5137172;28;20248;-63
2022/05/26 10:51:42;;;;;;;0.73;0.63;;;;;;;;;;5136338;28;20195;-62
2022/05/26 10:54:14;;;;;;;0.85;0.57;;;;;;;;;;5133821;28;20203;-62
2022/05/26 10:56:43;;;;;;;0.50;0.47;;;;;;;;;;5135396;28;20320;-62
2022/05/26 10:59:15;;;;;;;1.23;0.70;;;;;;;;;;5135887;28;20203;-62
2022/05/26 11:01:46;;;;;;;0.90;0.50;;;;;;;;;;5134870;28;20229;-63
2022/05/26 11:04:21;;;;;;;0.63;0.50;;;;;;;;;;5135967;28;20202;-62
2022/05/26 11:06:51;;;;;;;0.70;0.50;;;;;;;;;;5135127;28;20221;-62
2022/05/26 11:09:21;;;;;;;0.90;0.50;;;;;;;;;;5135507;28;20251;-62
2022/05/26 11:11:49;;;;;;;0.65;0.50;;;;;;;;;;5138690;27;20203;-62
2022/05/26 11:19:52;;;;;;;1.65;0.50;;;;;;;;;;5133925;27;20569;-62
2022/05/26 11:22:20;;;;;;;0.93;0.40;;;;;;;;;;5140438;27;20228;-62
2022/05/26 11:24:49;;;;;;;3.03;0.52;;;;;;;;;;5139535;27;20197;-62
2022/05/26 11:27:19;;;;;;;0.82;0.50;;;;;;;;;;5140678;27;20203;-62
2022/05/26 11:29:49;;;;;;;0.40;0.40;;;;;;;;;;5140092;27;20198;-62
2022/05/26 11:38:02;;;;;;;2.05;0.45;;;;;;;;;;5139297;27;20332;-62
2022/05/26 11:40:31;;;;;;;1.85;0.50;;;;;;;;;;5138901;27;20202;-62
2022/05/26 11:42:59;;;;;;;1.23;0.50;;;;;;;;;;5139607;27;20214;-62
2022/05/26 11:45:28;;;;;;;0.77;0.50;;;;;;;;;;5138671;27;20746;-62
2022/05/26 11:47:56;;;;;;;0.55;0.50;;;;;;;;;;5138788;27;20213;-62
2022/05/26 11:50:38;;;;;;;0.40;0.40;;;;;;;;;;5138771;27;20493;-62
2022/05/26 11:53:14;;;;;;;0.40;0.30;;;;;;;;;;5138128;27;20709;-62
2022/05/26 11:55:50;;;;;;;2.25;0.50;;;;;;;;;;5139194;27;20249;-62
2022/05/26 11:58:20;;;;;;;0.40;0.30;;;;;;;;;;5139516;27;20262;-62
2022/05/26 12:00:49;;;;;;;2.50;0.40;;;;;;;;;;5139346;27;20707;-62
2022/05/26 12:03:30;;;;;;;1.58;0.40;;;;;;;;;;5139139;27;20190;-62
2022/05/26 12:05:58;;;;;;;1.85;0.52;;;;;;;;;;5139054;27;20199;-62
2022/05/26 12:08:39;;;;;;;0.93;0.40;;;;;;;;;;5139006;27;20213;-62
2022/05/26 12:11:09;;;;;;;1.95;0.60;;;;;;;;;;5139119;27;20213;-62
2022/05/26 12:13:38;;;;;;;0.70;0.40;;;;;;;;;;5138879;27;20209;-62
2022/05/26 12:16:27;;;;;;;0.80;0.30;;;;;;;;;;5138536;27;20297;-62
2022/05/26 12:18:55;;;;;;;0.50;0.50;;;;;;;;;;5131136;27;20241;-62
2022/05/26 12:21:46;;;;;;;1.48;0.43;;;;;;;;;;5138712;27;20261;-63
2022/05/26 12:24:32;;;;;;;0.90;0.43;;;;;;;;;;5138427;27;20266;-62
2022/05/26 12:27:02;;;;;;;2.25;0.40;;;;;;;;;;5138974;27;20213;-62
2022/05/26 12:30:01;;;;;;;1.35;0.50;;;;;;;;;;5138594;27;20296;-62
2022/05/26 12:32:30;;;;;;;2.80;0.40;;;;;;;;;;5137259;27;20202;-62
2022/05/26 12:35:04;;;;;;;0.95;0.50;;;;;;;;;;5138327;27;20610;-62
2022/05/26 12:37:40;;;;;;;0.85;0.40;;;;;;;;;;5138312;27;20217;-62
2022/05/26 12:40:13;;;;;;;0.73;0.50;;;;;;;;;;5138806;27;20202;-62
2022/05/26 12:43:13;;;;;;;2.15;0.40;;;;;;;;;;5138002;27;20309;-62
2022/05/26 12:45:46;;;;;;;0.68;0.32;;;;;;;;;;5137097;27;20221;-62
2022/05/26 12:48:22;;;;;;;1.55;0.50;;;;;;;;;;5137945;27;21186;-62
2022/05/26 12:50:50;;;;;;;1.33;0.45;;;;;;;;;;5138443;27;20580;-62
2022/05/26 12:53:19;;;;;;;1.15;0.50;;;;;;;;;;5138192;27;20190;-62
2022/05/26 12:55:48;;;;;;;1.65;0.50;;;;;;;;;;5138151;27;20237;-62
2022/05/26 12:58:18;;;;;;;0.88;0.40;;;;;;;;;;5138502;27;20213;-62
2022/05/26 13:00:47;;;;;;;0.77;0.57;;;;;;;;;;5138189;27;20485;-61
2022/05/26 13:03:18;;;;;;;1.25;0.52;;;;;;;;;;5138610;27;20226;-62
2022/05/26 13:05:48;;;;;;;0.77;0.40;;;;;;;;;;5137595;27;20217;-62
2022/05/26 13:08:17;;;;;;;1.23;0.43;;;;;;;;;;5138527;27;20289;-62
2022/05/26 13:10:45;;;;;;;1.15;0.43;;;;;;;;;;5137519;27;20536;-62
2022/05/26 13:13:20;;;;;;;1.38;0.40;;;;;;;;;;5137160;27;20209;-62
2022/05/26 13:15:48;;;;;;;0.88;0.70;;;;;;;;;;5137194;27;20208;-62
2022/05/26 13:18:19;;;;;;;1.15;0.40;;;;;;;;;;5137893;27;20202;-62
2022/05/26 13:20:47;;;;;;;0.60;0.40;;;;;;;;;;5137929;27;20202;-62
2022/05/26 13:23:26;;;;;;;0.50;0.40;;;;;;;;;;5137271;27;20494;-62
2022/05/26 13:25:54;;;;;;;1.27;0.50;;;;;;;;;;5136863;27;20654;-62
2022/05/26 13:28:27;;;;;;;0.30;0.30;;;;;;;;;;5136275;27;20209;-62
2022/05/26 13:33:42;;;;;;;1.00;0.52;;;;;;;;;;5137003;27;20193;-61
2022/05/26 13:36:16;;;;;;;1.33;0.50;;;;;;;;;;5136640;27;20202;-62
2022/05/26 13:38:46;;;;;;;0.55;0.40;;;;;;;;;;5136786;27;20209;-62
2022/05/26 13:41:17;;;;;;;0.55;0.40;;;;;;;;;;5137137;27;20198;-62
2022/05/26 13:43:46;;;;;;;0.50;0.40;;;;;;;;;;5137186;27;20218;-62
2022/05/26 13:46:15;;;;;;;0.95;0.60;;;;;;;;;;5136452;27;20217;-62
2022/05/26 13:48:44;;;;;;;0.60;0.40;;;;;;;;;;5136961;27;20202;-62
2022/05/26 13:51:15;;;;;;;1.20;0.40;;;;;;;;;;5136947;27;20266;-62
2022/05/26 13:53:44;;;;;;;0.98;0.47;;;;;;;;;;5136767;27;20289;-62
2022/05/26 13:56:12;;;;;;;0.80;0.55;;;;;;;;;;5136834;27;20730;-62
2022/05/26 13:58:40;;;;;;;1.52;0.55;;;;;;;;;;5136936;27;20209;-62
2022/05/26 14:01:10;;;;;;;0.80;0.50;;;;;;;;;;5137302;27;20308;-62
2022/05/26 14:03:38;;;;;;;1.63;0.57;;;;;;;;;;5136525;27;20229;-63
2022/05/26 14:06:06;;;;;;;1.25;0.50;;;;;;;;;;5136344;27;20198;-62
2022/05/26 14:08:34;;;;;;;0.40;0.40;;;;;;;;;;5136028;27;20818;-62
2022/05/26 14:11:01;;;;;;;1.25;0.43;;;;;;;;;;5136381;27;20213;-62
2022/05/26 14:13:32;;;;;;;1.52;0.40;;;;;;;;;;5135570;27;20201;-61
2022/05/26 14:16:16;;;;;;;0.70;0.50;;;;;;;;;;5135143;27;20297;-62
2022/05/26 14:18:46;;;;;;;1.50;0.45;;;;;;;;;;5135131;27;20194;-61
2022/05/26 14:21:20;;;;;;;1.38;0.50;;;;;;;;;;5134862;27;20693;-61
2022/05/26 14:23:50;;;;;;;0.95;0.47;;;;;;;;;;5135564;27;20628;-61
2022/05/26 14:26:29;;;;;;;1.48;0.60;;;;;;;;;;5135806;27;20220;-62
2022/05/26 14:28:57;;;;;;;1.02;0.60;;;;;;;;;;5135591;27;20291;-62
2022/05/26 14:31:26;;;;;;;0.95;0.50;;;;;;;;;;5134702;27;20202;-62
2022/05/26 14:33:58;;;;;;;0.40;0.40;;;;;;;;;;5134780;27;20198;-62
2022/05/26 14:36:26;;;;;;;0.82;0.52;;;;;;;;;;5135362;27;20202;-61
2022/05/26 14:38:53;;;;;;;0.60;0.40;;;;;;;;;;5135696;27;20202;-62
2022/05/26 14:41:21;;;;;;;0.57;0.30;;;;;;;;;;5136487;28;20233;-61
2022/05/26 14:43:54;;;;;;;1.02;0.68;;;;;;;;;;5136409;28;20226;-61
2022/05/26 14:46:21;;;;;;;0.47;0.35;;;;;;;;;;5140138;27;20208;-62
2022/05/26 14:48:49;;;;;;;1.00;0.50;;;;;;;;;;5141229;27;20207;-61
2022/05/26 14:51:17;;;;;;;0.75;0.50;;;;;;;;;;5140830;27;20209;-62
2022/05/26 14:56:29;;;;;;;0.60;0.60;;;;;;;;;;5139838;27;20275;-61
2022/05/26 14:58:58;;;;;;;0.68;0.40;;;;;;;;;;5140154;27;20198;-62
2022/05/26 15:01:26;;;;;;;0.60;0.50;;;;;;;;;;5140134;27;20570;-62
2022/05/26 15:03:53;;;;;;;0.50;0.40;;;;;;;;;;5140096;27;20785;-61
2022/05/26 15:06:22;;;;;;;0.60;0.40;;;;;;;;;;5141126;27;20198;-61
2022/05/26 15:08:50;;;;;;;0.45;0.32;;;;;;;;;;5140633;27;20202;-62
2022/05/26 15:11:18;;;;;;;0.50;0.50;;;;;;;;;;5140597;27;20203;-61
2022/05/26 15:13:45;;;;;;;0.85;0.55;;;;;;;;;;5140397;27;20190;-61
2022/05/26 15:16:14;;;;;;;0.82;0.60;;;;;;;;;;5139799;27;20213;-61
2022/05/26 15:18:41;;;;;;;0.85;0.52;;;;;;;;;;5140750;27;20214;-62
2022/05/26 15:21:10;;;;;;;0.50;0.50;;;;;;;;;;5140462;27;20205;-62
2022/05/26 15:23:38;;;;;;;0.82;0.40;;;;;;;;;;5141129;27;20270;-62
2022/05/26 15:26:11;;;;;;;0.50;0.50;;;;;;;;;;5140711;27;20490;-61
2022/05/26 15:28:39;;;;;;;1.85;0.60;;;;;;;;;;5139659;27;20194;-61
2022/05/26 15:31:06;;;;;;;0.40;0.40;;;;;;;;;;5139856;27;20267;-63
2022/05/26 15:33:34;;;;;;;0.85;0.52;;;;;;;;;;5140159;27;20213;-62
2022/05/26 15:36:04;;;;;;;0.90;0.60;;;;;;;;;;5140492;27;20242;-62
2022/05/26 15:38:35;;;;;;;1.17;0.60;;;;;;;;;;5139747;27;20194;-62
2022/05/26 15:41:05;;;;;;;0.70;0.47;;;;;;;;;;5140206;27;20210;-62
2022/05/26 15:43:33;;;;;;;0.65;0.57;;;;;;;;;;5139613;27;20229;-61
2022/05/26 15:46:01;;;;;;;1.35;0.40;;;;;;;;;;5140048;27;20209;-62